createdAt,value
2023-03-26T00:07:03.119Z,0.6
2023-03-26T00:22:24.085Z,0.6
2023-03-26T00:37:45.049Z,0.8
2023-03-26T00:53:06.014Z,0.6
2023-03-26T01:08:27.000Z,0.7
2023-03-26T01:23:47.961Z,0.8
2023-03-26T01:39:07.000Z,0.6
2023-03-26T01:54:28.895Z,0.9
2023-03-26T02:09:49.000Z,0.6
2023-03-26T02:25:10.840Z,1.3
2023-03-26T02:40:31.000Z,0.6
2023-03-26T02:55:52.774Z,1.1
2023-03-26T03:11:13.000Z,1.1
2023-03-26T03:26:34.715Z,0.7
2023-03-26T03:41:55.680Z,0.8
2023-03-26T03:57:16.000Z,0.8
2023-03-26T04:12:37.000Z,0.8
2023-03-26T04:27:58.556Z,0.7
2023-03-26T04:43:19.000Z,0.7
2023-03-26T04:58:39.000Z,0.8
2023-03-26T05:14:00.342Z,0.8
2023-03-26T05:29:21.254Z,0.8
2023-03-26T05:44:42.193Z,1.1
2023-03-26T06:00:03.109Z,0.9
2023-03-26T06:15:24.041Z,0.8
2023-03-26T06:30:44.961Z,0.9
2023-03-26T06:46:05.894Z,0.9
2023-03-26T07:01:26.820Z,1.1
2023-03-26T07:16:47.724Z,1.1
2023-03-26T07:32:08.657Z,1.1
2023-03-26T07:47:29.000Z,1.4
2023-03-26T08:02:50.520Z,0.7
2023-03-26T08:18:10.460Z,1.1
2023-03-26T08:33:31.373Z,1
2023-03-26T08:48:52.000Z,1.2
2023-03-26T09:04:13.227Z,1
2023-03-26T09:19:34.125Z,1.2
2023-03-26T09:34:55.084Z,1.2
2023-03-26T09:50:15.978Z,1.1
2023-03-26T10:05:36.920Z,1.1
2023-03-26T10:20:57.840Z,1.5
2023-03-26T10:22:18.916Z,1.5
2023-03-26T10:23:40.000Z,1.5
2023-03-26T10:25:01.051Z,1.7
2023-03-26T10:26:22.000Z,1.7
2023-03-26T10:27:42.217Z,1.3
2023-03-26T10:29:03.000Z,1.6
2023-03-26T10:30:24.352Z,1.5
2023-03-26T10:31:45.397Z,1.3
2023-03-26T10:33:06.474Z,1.1
2023-03-26T10:34:27.000Z,1.3
2023-03-26T10:37:09.000Z,1.3
2023-03-26T10:38:30.730Z,1.6
2023-03-26T10:39:51.000Z,1.5
2023-03-26T10:41:12.883Z,1.5
2023-03-26T10:42:33.000Z,1.5
2023-03-26T10:43:55.016Z,1.4
2023-03-26T10:45:15.108Z,1.6
2023-03-26T10:46:36.164Z,1.4
2023-03-26T10:47:57.231Z,1.4
2023-03-26T10:49:18.339Z,1.2
2023-03-26T10:50:39.399Z,1.7
2023-03-26T10:52:00.468Z,1.6
2023-03-26T10:53:21.000Z,1.3
2023-03-26T10:54:42.621Z,1.3
2023-03-26T10:56:03.000Z,1.3
2023-03-26T10:57:24.740Z,1.3
2023-03-26T10:58:45.821Z,1.2
2023-03-26T11:00:06.881Z,1.1
2023-03-26T11:01:27.945Z,1.2
2023-03-26T11:02:48.004Z,1.3
2023-03-26T11:04:09.099Z,1.4
2023-03-26T11:05:30.157Z,1.1
2023-03-26T11:06:51.000Z,1.3
2023-03-26T11:08:12.295Z,1.3
2023-03-26T11:09:33.000Z,1.2
2023-03-26T11:10:54.442Z,1.4
2023-03-26T11:12:15.000Z,1.1
2023-03-26T11:13:36.581Z,1.2
2023-03-26T11:14:57.627Z,1.3
2023-03-26T11:16:18.713Z,1.2
2023-03-26T11:17:39.762Z,1.2
2023-03-26T11:19:00.833Z,1
2023-03-26T11:20:20.916Z,1.2
2023-03-26T11:21:41.990Z,1.5
2023-03-26T11:23:03.057Z,1.3
2023-03-26T11:24:24.122Z,1.1
2023-03-26T11:25:45.179Z,1.5
2023-03-26T11:27:06.246Z,1.3
2023-03-26T11:28:27.325Z,1.3
2023-03-26T11:29:48.385Z,1.5
2023-03-26T11:31:09.456Z,1.3
2023-03-26T11:32:30.544Z,1.6
2023-03-26T11:33:51.000Z,1.2
2023-03-26T11:35:12.664Z,1.3
2023-03-26T11:36:33.711Z,1.9
2023-03-26T11:37:53.823Z,1.4
2023-03-26T11:39:14.000Z,1.4
2023-03-26T11:40:35.952Z,1.3
2023-03-26T11:41:57.012Z,1.2
2023-03-26T11:43:18.078Z,1.2
2023-03-26T11:44:39.145Z,1.6
2023-03-26T11:46:00.217Z,1.2
2023-03-26T11:47:21.254Z,1.1
2023-03-26T11:48:42.351Z,1.4
2023-03-26T11:50:03.000Z,1
2023-03-26T11:51:24.488Z,1.4
2023-03-26T11:52:45.547Z,1.2
2023-03-26T11:54:06.625Z,1.2
2023-03-26T11:55:26.675Z,1.3
2023-03-26T11:56:47.768Z,1.1
2023-03-26T11:58:08.804Z,1.1
2023-03-26T11:59:29.865Z,1
2023-03-26T12:00:50.961Z,1.1
2023-03-26T12:02:12.022Z,1
2023-03-26T12:03:33.104Z,1
2023-03-26T12:04:54.156Z,1.2
2023-03-26T12:06:15.000Z,1.2
2023-03-26T12:07:36.296Z,1.3
2023-03-26T12:08:57.366Z,1.1
2023-03-26T12:10:18.429Z,1
2023-03-26T12:11:39.498Z,1.2
2023-03-26T12:12:59.568Z,1
2023-03-26T12:14:20.643Z,1.1
2023-03-26T12:15:41.711Z,0.9
2023-03-26T12:17:02.000Z,1.3
2023-03-26T12:18:23.851Z,1
2023-03-26T12:19:44.000Z,1
2023-03-26T12:21:04.997Z,1.3
2023-03-26T12:22:26.053Z,1.1
2023-03-26T12:23:47.140Z,1.2
2023-03-26T12:25:08.205Z,1.3
2023-03-26T12:26:29.263Z,1
2023-03-26T12:27:50.000Z,1
2023-03-26T12:29:11.413Z,1
2023-03-26T12:30:32.000Z,1
2023-03-26T12:31:53.520Z,0.9
2023-03-26T12:33:14.000Z,1
2023-03-26T12:34:35.678Z,1
2023-03-26T12:35:56.753Z,1.3
2023-03-26T12:37:17.817Z,1.2
2023-03-26T12:38:37.912Z,1
2023-03-26T12:39:58.961Z,0.9
2023-03-26T12:41:20.000Z,0.9
2023-03-26T12:42:41.116Z,1
2023-03-26T12:44:02.000Z,1.3
2023-03-26T12:45:23.246Z,1.2
2023-03-26T12:46:44.000Z,0.7
2023-03-26T12:48:05.364Z,1
2023-03-26T12:49:26.418Z,0.8
2023-03-26T12:50:47.497Z,1.2
2023-03-26T12:52:08.580Z,0.8
2023-03-26T12:53:29.644Z,0.9
2023-03-26T12:54:50.679Z,0.9
2023-03-26T12:56:10.788Z,1.1
2023-03-26T12:57:31.860Z,0.9
2023-03-26T12:58:52.940Z,0.9
2023-03-26T13:00:13.989Z,1
2023-03-26T13:01:35.061Z,1
2023-03-26T13:02:56.104Z,1
2023-03-26T13:04:17.187Z,1.2
2023-03-26T13:05:38.257Z,1.4
2023-03-26T13:06:59.325Z,1.2
2023-03-26T13:08:20.386Z,1.3
2023-03-26T13:09:41.454Z,1.1
2023-03-26T13:11:02.522Z,1.2
2023-03-26T13:12:23.594Z,0.9
2023-03-26T13:13:43.676Z,0.9
2023-03-26T13:15:04.744Z,0.7
2023-03-26T13:16:25.000Z,0.9
2023-03-26T13:17:46.859Z,0.7
2023-03-26T13:19:07.924Z,0.9
2023-03-26T13:20:28.997Z,0.9
2023-03-26T13:21:50.065Z,0.9
2023-03-26T13:23:11.126Z,0.9
2023-03-26T13:24:32.000Z,0.9
2023-03-26T13:25:53.260Z,0.8
2023-03-26T13:27:14.000Z,1
2023-03-26T13:28:35.399Z,1
2023-03-26T13:29:56.480Z,1
2023-03-26T13:31:16.556Z,1.3
2023-03-26T13:32:37.622Z,1.3
2023-03-26T13:33:58.701Z,1.1
2023-03-26T13:35:19.000Z,1.4
2023-03-26T13:36:40.823Z,1.6
2023-03-26T13:38:01.884Z,1.1
2023-03-26T13:39:22.951Z,1.4
2023-03-26T13:40:44.000Z,1.6
2023-03-26T13:42:05.089Z,1.8
2023-03-26T13:43:26.158Z,1.2
2023-03-26T13:44:47.199Z,1.2
2023-03-26T13:46:08.270Z,1.3
2023-03-26T13:47:29.369Z,1.3
2023-03-26T13:48:50.000Z,1.5
2023-03-26T13:50:11.584Z,1.5
2023-03-26T13:51:32.000Z,1.5
2023-03-26T13:52:53.752Z,1.4
2023-03-26T13:54:14.000Z,1.4
2023-03-26T13:55:35.889Z,1.6
2023-03-26T13:56:56.939Z,1.4
2023-03-26T13:58:18.010Z,1.3
2023-03-26T13:59:39.000Z,1.2
2023-03-26T14:01:00.128Z,1.2
2023-03-26T14:02:21.215Z,1.1
2023-03-26T14:03:42.252Z,1.2
2023-03-26T14:05:03.342Z,1
2023-03-26T14:06:23.421Z,1.2
2023-03-26T14:07:44.000Z,0.9
2023-03-26T14:09:05.562Z,1.1
2023-03-26T14:10:26.608Z,1.2
2023-03-26T14:11:47.688Z,1.5
2023-03-26T14:13:08.000Z,1.2
2023-03-26T14:14:29.822Z,1.5
2023-03-26T14:15:50.000Z,1
2023-03-26T14:17:11.975Z,1.2
2023-03-26T14:18:33.000Z,1.1
2023-03-26T14:19:54.095Z,1.2
2023-03-26T14:21:15.000Z,1.2
2023-03-26T14:22:36.234Z,1.4
2023-03-26T14:23:57.314Z,0.8
2023-03-26T14:25:18.464Z,1.1
2023-03-26T14:26:39.000Z,1.1
2023-03-26T14:28:00.628Z,1.2
2023-03-26T14:29:21.710Z,1.1
2023-03-26T14:30:42.780Z,1.2
2023-03-26T14:32:03.830Z,1
2023-03-26T14:33:24.905Z,3
2023-03-26T14:34:46.000Z,0.9
2023-03-26T14:36:07.000Z,1.3
2023-03-26T14:37:28.115Z,1.3
2023-03-26T14:38:49.175Z,1.2
2023-03-26T14:40:10.000Z,1.1
2023-03-26T14:41:31.292Z,1
2023-03-26T14:42:51.000Z,0.9
2023-03-26T14:44:12.467Z,1.4
2023-03-26T14:45:33.503Z,1
2023-03-26T14:46:54.587Z,1.2
2023-03-26T14:48:15.000Z,1.5
2023-03-26T14:49:36.737Z,1
2023-03-26T14:50:57.776Z,1.3
2023-03-26T14:52:18.857Z,1.1
2023-03-26T14:53:39.936Z,1.1
2023-03-26T14:55:00.966Z,1.1
2023-03-26T14:56:22.029Z,1.2
2023-03-26T14:57:43.133Z,1
2023-03-26T14:59:04.000Z,1.1
2023-03-26T15:00:24.000Z,1.1
2023-03-26T15:01:45.000Z,1.3
2023-03-26T15:03:06.414Z,1
2023-03-26T15:04:27.000Z,1.1
2023-03-26T15:05:48.000Z,1
2023-03-26T15:07:09.000Z,0.9
2023-03-26T15:08:30.672Z,0.9
2023-03-26T15:09:51.000Z,0.9
2023-03-26T15:11:12.805Z,0.8
2023-03-26T15:12:33.847Z,1.1
2023-03-26T15:13:54.953Z,0.8
2023-03-26T15:15:16.000Z,1.1
2023-03-26T15:16:37.092Z,1.5
2023-03-26T15:17:57.000Z,1.1
2023-03-26T15:19:18.209Z,1.1
2023-03-26T15:20:39.000Z,1.3
2023-03-26T15:22:00.345Z,1
2023-03-26T15:23:21.000Z,1.2
2023-03-26T15:24:42.482Z,1.2
2023-03-26T15:26:03.000Z,1.1
2023-03-26T15:27:24.620Z,0.9
2023-03-26T15:28:45.000Z,1.1
2023-03-26T15:30:06.773Z,1.3
2023-03-26T15:31:27.000Z,1.2
2023-03-26T15:32:48.908Z,0.8
2023-03-26T15:34:09.000Z,1
2023-03-26T15:35:30.061Z,1
2023-03-26T15:36:51.000Z,1.2
2023-03-26T15:38:12.194Z,1.1
2023-03-26T15:39:33.000Z,1.2
2023-03-26T15:40:54.326Z,1.2
2023-03-26T15:42:15.000Z,1.5
2023-03-26T15:43:36.000Z,1.4
2023-03-26T15:44:57.540Z,1.3
2023-03-26T15:46:18.593Z,1.1
2023-03-26T15:47:39.000Z,1.5
2023-03-26T15:49:00.745Z,1.3
2023-03-26T15:50:21.000Z,1
2023-03-26T15:51:42.874Z,1.3
2023-03-26T15:53:02.000Z,1.3
2023-03-26T15:54:23.993Z,1.5
2023-03-26T15:55:45.000Z,1.1
2023-03-26T15:57:06.151Z,1.9
2023-03-26T15:58:27.000Z,2.3
2023-03-26T15:59:48.284Z,1.7
2023-03-26T16:01:09.000Z,1.3
2023-03-26T16:02:30.411Z,2.2
2023-03-26T16:03:51.000Z,1.9
2023-03-26T16:05:12.552Z,1.9
2023-03-26T16:06:33.000Z,2
2023-03-26T16:07:54.656Z,1.8
2023-03-26T16:09:15.000Z,1.5
2023-03-26T16:10:35.805Z,1.4
2023-03-26T16:11:56.895Z,1.4
2023-03-26T16:13:17.964Z,1.5
2023-03-26T16:14:39.000Z,1.5
2023-03-26T16:16:00.093Z,1.4
2023-03-26T16:17:21.000Z,2.3
2023-03-26T16:18:42.224Z,1.8
2023-03-26T16:20:03.000Z,1.5
2023-03-26T16:21:24.353Z,1.2
2023-03-26T16:22:45.000Z,1.3
2023-03-26T16:24:06.467Z,1.3
2023-03-26T16:25:27.000Z,1.2
2023-03-26T16:26:48.647Z,1.5
2023-03-26T16:28:08.710Z,1.2
2023-03-26T16:29:29.783Z,1.4
2023-03-26T16:30:50.000Z,1.2
2023-03-26T16:32:11.919Z,1.2
2023-03-26T16:33:33.000Z,1.2
2023-03-26T16:34:54.035Z,1.3
2023-03-26T16:36:15.000Z,1
2023-03-26T16:37:36.163Z,1.3
2023-03-26T16:38:57.264Z,1
2023-03-26T16:40:18.335Z,1.3
2023-03-26T16:41:39.393Z,1.8
2023-03-26T16:43:00.438Z,1.1
2023-03-26T16:44:21.000Z,1.2
2023-03-26T16:45:41.607Z,1.2
2023-03-26T16:47:02.000Z,1.2
2023-03-26T16:48:23.710Z,1.4
2023-03-26T16:49:44.000Z,1.2
2023-03-26T16:51:05.883Z,1.2
2023-03-26T16:52:25.955Z,1.2
2023-03-26T16:53:47.021Z,1.5
2023-03-26T16:55:08.091Z,1.2
2023-03-26T16:56:29.129Z,1.1
2023-03-26T16:57:50.219Z,1.2
2023-03-26T16:59:11.298Z,1.4
2023-03-26T17:00:32.000Z,1.1
2023-03-26T17:01:53.440Z,1.5
2023-03-26T17:03:14.000Z,1.4
2023-03-26T17:04:35.559Z,1.3
2023-03-26T17:05:56.609Z,1.6
2023-03-26T17:07:17.695Z,1.3
2023-03-26T17:08:38.759Z,1.5
2023-03-26T17:09:58.837Z,1.7
2023-03-26T17:11:19.000Z,1.8
2023-03-26T17:12:40.978Z,1.8
2023-03-26T17:14:02.000Z,1.7
2023-03-26T17:15:23.107Z,2.4
2023-03-26T17:16:44.000Z,2.9
2023-03-26T17:18:05.243Z,2.7
2023-03-26T17:19:26.300Z,2.5
2023-03-26T17:20:47.380Z,2.8
2023-03-26T17:22:08.436Z,3
2023-03-26T17:23:29.509Z,2.8
2023-03-26T17:24:50.000Z,2.2
2023-03-26T17:26:11.636Z,2.5
2023-03-26T17:27:31.688Z,3.2
2023-03-26T17:28:52.784Z,3
2023-03-26T17:30:13.857Z,3.5
2023-03-26T17:31:34.000Z,3.3
2023-03-26T17:32:55.995Z,3
2023-03-26T17:34:17.049Z,3
2023-03-26T17:35:38.084Z,3.1
2023-03-26T17:36:59.190Z,2.9
2023-03-26T17:38:20.222Z,2.5
2023-03-26T17:39:41.323Z,2.9
2023-03-26T17:41:02.389Z,2.3
2023-03-26T17:42:23.000Z,2.7
2023-03-26T17:43:44.512Z,2.6
2023-03-26T17:45:04.597Z,2
2023-03-26T17:46:25.676Z,2
2023-03-26T17:47:46.738Z,2.3
2023-03-26T17:49:07.794Z,2.4
2023-03-26T17:50:28.874Z,1.9
2023-03-26T17:51:49.000Z,2.1
2023-03-26T17:53:11.086Z,2.2
2023-03-26T17:54:32.000Z,2.2
2023-03-26T17:55:53.188Z,2.3
2023-03-26T17:57:14.000Z,2.4
2023-03-26T17:58:35.389Z,1.6
2023-03-26T17:59:56.502Z,1.8
2023-03-26T18:01:17.611Z,2
2023-03-26T18:02:37.739Z,1.6
2023-03-26T18:03:58.819Z,1.8
2023-03-26T18:05:19.956Z,2.1
2023-03-26T18:06:41.064Z,2.1
2023-03-26T18:08:02.000Z,1.7
2023-03-26T18:09:23.300Z,1.8
2023-03-26T18:10:44.397Z,2.4
2023-03-26T18:12:05.485Z,2.6
2023-03-26T18:13:26.628Z,3
2023-03-26T18:14:47.734Z,2.9
2023-03-26T18:16:08.818Z,2.8
2023-03-26T18:17:29.945Z,2.2
2023-03-26T18:18:51.000Z,1.9
2023-03-26T18:20:11.193Z,2
2023-03-26T18:21:32.267Z,1.8
2023-03-26T18:22:53.000Z,1.7
2023-03-26T18:24:14.000Z,2
2023-03-26T18:25:35.630Z,2
2023-03-26T18:26:56.733Z,1.8
2023-03-26T18:28:17.848Z,1.6
2023-03-26T18:29:38.954Z,1.6
2023-03-26T18:31:00.030Z,1.8
2023-03-26T18:32:21.170Z,1.6
2023-03-26T18:33:42.251Z,1.6
2023-03-26T18:35:03.365Z,2
2023-03-26T18:36:24.497Z,1.8
2023-03-26T18:37:44.000Z,1.9
2023-03-26T18:39:05.741Z,2
2023-03-26T18:40:26.857Z,1.7
2023-03-26T18:41:47.940Z,1.9
2023-03-26T18:43:09.061Z,1.9
2023-03-26T18:44:30.143Z,2.2
2023-03-26T18:45:51.292Z,2.1
2023-03-26T18:47:12.394Z,2.2
2023-03-26T18:48:33.470Z,2.4
2023-03-26T18:49:54.626Z,2.1
2023-03-26T18:51:15.725Z,2.2
2023-03-26T18:52:36.801Z,2.2
2023-03-26T18:53:57.936Z,1.9
2023-03-26T18:55:18.000Z,2
2023-03-26T18:56:39.183Z,1.9
2023-03-26T18:58:00.289Z,1.6
2023-03-26T18:59:21.369Z,2.2
2023-03-26T19:00:42.498Z,1.9
2023-03-26T19:02:03.581Z,2.1
2023-03-26T19:03:24.730Z,2.1
2023-03-26T19:04:45.796Z,2.5
2023-03-26T19:06:06.947Z,2
2023-03-26T19:07:28.047Z,2.6
2023-03-26T19:08:49.156Z,2.6
2023-03-26T19:10:10.273Z,2.3
2023-03-26T19:11:31.000Z,2.3
2023-03-26T19:12:51.501Z,2.3
2023-03-26T19:14:12.625Z,2.4
2023-03-26T19:29:33.592Z,1.8
2023-03-26T19:44:54.545Z,1.6
2023-03-26T20:00:15.516Z,1.4
2023-03-26T20:15:36.461Z,1.2
2023-03-26T20:30:57.459Z,0.8
2023-03-26T20:32:18.585Z,1.2
2023-03-26T20:33:39.655Z,2.4
2023-03-26T20:35:00.796Z,2.6
2023-03-26T20:36:21.902Z,3.5
2023-03-26T20:37:43.000Z,4
2023-03-26T20:39:04.115Z,3.7
2023-03-26T20:40:24.250Z,3.6
2023-03-26T20:41:45.350Z,3.6
2023-03-26T20:43:06.458Z,3.7
2023-03-26T20:44:27.581Z,3.3
2023-03-26T20:45:48.000Z,3.4
2023-03-26T20:47:09.761Z,3.2
2023-03-26T20:48:30.894Z,2.7
2023-03-26T20:49:52.011Z,2.7
2023-03-26T20:51:13.103Z,2.6
2023-03-26T20:52:34.209Z,2.7
2023-03-26T20:53:55.000Z,3
2023-03-26T20:55:16.436Z,1.5
2023-03-26T20:56:37.551Z,1
2023-03-26T20:57:57.662Z,1
2023-03-26T21:00:39.881Z,0.8
2023-03-26T21:02:01.000Z,0.8
2023-03-26T21:03:22.000Z,1
2023-03-26T21:04:43.205Z,0.8
2023-03-26T21:06:04.000Z,0.9
2023-03-26T21:07:25.431Z,1.1
2023-03-26T21:08:46.000Z,0.9
2023-03-26T21:10:07.652Z,1.2
2023-03-26T21:11:28.743Z,1.3
2023-03-26T21:12:49.872Z,1.4
2023-03-26T21:14:10.974Z,1.7
2023-03-26T21:15:31.116Z,1.7
2023-03-26T21:16:52.000Z,1.5
2023-03-26T21:18:13.000Z,1.9
2023-03-26T21:19:34.000Z,1.9
2023-03-26T21:20:55.000Z,2.1
2023-03-26T21:22:16.000Z,2
2023-03-26T21:23:37.756Z,2.2
2023-03-26T21:24:58.831Z,2.6
2023-03-26T21:26:19.000Z,2.6
2023-03-26T21:41:40.918Z,1.6
2023-03-26T21:57:01.915Z,1.4
2023-03-26T22:12:22.000Z,1.8
2023-03-26T22:27:43.810Z,1.1
2023-03-26T22:43:04.921Z,1.1
2023-03-26T22:58:25.000Z,1.2
2023-03-26T23:13:46.000Z,0.8
2023-03-26T23:29:07.833Z,0.9
2023-03-26T23:44:28.801Z,1
2023-03-26T23:59:49.760Z,0.7
